Time,TemperatureF,DewpointF,PressureIn,WindDirection,WindDirectionDegrees,WindSpeedMPH,WindSpeedGustMPH,Humidity,HourlyPrecipIn,Conditions,Clouds,dailyrainin,SoftwareType,DateUTC
2013-01-14 00:02:00,29.0,16.0,-100.00,East,90,5.0,9.0,58,-99.99,,,-99.99,,2013-01-14 08:02:00,
2013-01-14 00:12:00,29.0,14.0,-100.00,East,81,4.0,8.0,53,-99.99,,,-99.99,,2013-01-14 08:12:00,
2013-01-14 00:22:00,29.0,13.0,-100.00,ENE,71,5.0,7.0,51,-99.99,,,-99.99,,2013-01-14 08:22:00,
2013-01-14 00:32:00,29.0,13.0,-100.00,East,80,4.0,6.0,50,-99.99,,,-99.99,,2013-01-14 08:32:00,
2013-01-14 00:42:00,29.0,12.0,-100.00,East,89,2.0,4.0,49,-99.99,,,-99.99,,2013-01-14 08:42:00,
2013-01-14 00:52:00,28.0,12.0,-100.00,SE,126,1.0,3.0,51,-99.99,,,-99.99,,2013-01-14 08:52:00,
2013-01-14 01:02:00,29.0,12.0,-100.00,ENE,73,2.0,5.0,49,-99.99,,,-99.99,,2013-01-14 09:02:00,
2013-01-14 01:11:00,28.0,12.0,-100.00,ENE,71,3.0,9.0,51,-99.99,,,-99.99,,2013-01-14 09:11:00,
2013-01-14 01:22:00,28.0,12.0,-100.00,SSE,162,1.0,4.0,50,-99.99,,,-99.99,,2013-01-14 09:22:00,
2013-01-14 01:33:00,27.0,12.0,-100.00,SW,221,1.0,3.0,52,-99.99,,,-99.99,,2013-01-14 09:33:00,
2013-01-14 01:42:00,27.0,12.0,-100.00,SW,221,1.0,3.0,52,-99.99,,,-99.99,,2013-01-14 09:42:00,
2013-01-14 01:52:00,27.0,12.0,-100.00,SW,221,1.0,3.0,52,-99.99,,,-99.99,,2013-01-14 09:52:00,
2013-01-14 02:02:00,27.0,11.0,-100.00,South,175,2.0,3.0,51,-99.99,,,-99.99,,2013-01-14 10:02:00,
2013-01-14 02:11:00,27.0,10.0,-100.00,NE,49,2.0,5.0,49,-99.99,,,-99.99,,2013-01-14 10:11:00,
2013-01-14 02:22:00,27.0,9.0,-100.00,East,79,2.0,5.0,45,-99.99,,,-99.99,,2013-01-14 10:22:00,
2013-01-14 02:32:00,27.0,8.0,-100.00,ESE,122,2.0,4.0,44,-99.99,,,-99.99,,2013-01-14 10:32:00,
2013-01-14 02:42:00,27.0,9.0,-100.00,SSE,148,3.0,5.0,46,-99.99,,,-99.99,,2013-01-14 10:42:00,
2013-01-14 02:52:00,26.0,8.0,-100.00,SE,127,2.0,4.0,46,-99.99,,,-99.99,,2013-01-14 10:52:00,
2013-01-14 03:02:00,26.0,8.0,-100.00,SE,142,2.0,4.0,46,-99.99,,,-99.99,,2013-01-14 11:02:00,
2013-01-14 03:11:00,26.0,7.0,-100.00,ESE,115,3.0,5.0,43,-99.99,,,-99.99,,2013-01-14 11:11:00,
2013-01-14 03:22:00,27.0,7.0,-100.00,ESE,112,1.0,3.0,42,-99.99,,,-99.99,,2013-01-14 11:22:00,
2013-01-14 03:32:00,26.0,6.0,-100.00,East,91,3.0,4.0,42,-99.99,,,-99.99,,2013-01-14 11:32:00,
2013-01-14 03:42:00,25.0,7.0,-100.00,ESE,117,3.0,5.0,46,-99.99,,,-99.99,,2013-01-14 11:42:00,
2013-01-14 03:53:00,25.0,6.0,-100.00,SE,135,4.0,5.0,44,-99.99,,,-99.99,,2013-01-14 11:53:00,
2013-01-14 04:02:00,25.0,6.0,-100.00,SE,135,4.0,5.0,44,-99.99,,,-99.99,,2013-01-14 12:02:00,
2013-01-14 04:12:00,25.0,7.0,-100.00,ESE,114,4.0,7.0,45,-99.99,,,-99.99,,2013-01-14 12:12:00,
2013-01-14 04:22:00,24.0,6.0,-100.00,ENE,77,2.0,4.0,45,-99.99,,,-99.99,,2013-01-14 12:22:00,
2013-01-14 04:33:00,24.0,6.0,-100.00,SSE,167,1.0,3.0,45,-99.99,,,-99.99,,2013-01-14 12:33:00,
2013-01-14 04:42:00,25.0,5.0,-100.00,ESE,119,1.0,3.0,42,-99.99,,,-99.99,,2013-01-14 12:42:00,
2013-01-14 04:52:00,24.0,5.0,-100.00,SE,143,4.0,5.0,44,-99.99,,,-99.99,,2013-01-14 12:52:00,
2013-01-14 05:03:00,24.0,7.0,-100.00,ESE,120,4.0,7.0,47,-99.99,,,-99.99,,2013-01-14 13:03:00,
2013-01-14 05:12:00,24.0,6.0,-100.00,SE,129,6.0,7.0,46,-99.99,,,-99.99,,2013-01-14 13:12:00,
2013-01-14 05:22:00,24.0,6.0,-100.00,ESE,120,5.0,6.0,46,-99.99,,,-99.99,,2013-01-14 13:22:00,
2013-01-14 05:33:00,23.0,7.0,-100.00,SW,214,1.0,3.0,50,-99.99,,,-99.99,,2013-01-14 13:33:00,
2013-01-14 05:43:00,23.0,7.0,-100.00,SW,214,1.0,3.0,50,-99.99,,,-99.99,,2013-01-14 13:43:00,
2013-01-14 05:52:00,23.0,6.0,-100.00,South,179,2.0,3.0,48,-99.99,,,-99.99,,2013-01-14 13:52:00,
2013-01-14 06:02:00,24.0,6.0,-100.00,South,179,2.0,3.0,45,-99.99,,,-99.99,,2013-01-14 14:02:00,
2013-01-14 06:12:00,23.0,6.0,-100.00,SSW,198,1.0,2.0,47,-99.99,,,-99.99,,2013-01-14 14:12:00,
2013-01-14 06:22:00,23.0,5.0,-100.00,South,184,0.0,1.0,46,-99.99,,,-99.99,,2013-01-14 14:22:00,
2013-01-14 06:32:00,24.0,4.0,-100.00,SE,145,3.0,3.0,42,-99.99,,,-99.99,,2013-01-14 14:32:00,
2013-01-14 06:42:00,24.0,4.0,-100.00,SE,145,3.0,3.0,42,-99.99,,,-99.99,,2013-01-14 14:42:00,
2013-01-14 06:52:00,23.0,6.0,-100.00,SE,137,4.0,4.0,47,-99.99,,,-99.99,,2013-01-14 14:52:00,
2013-01-14 07:02:00,23.0,6.0,-100.00,SE,137,4.0,4.0,47,-99.99,,,-99.99,,2013-01-14 15:02:00,
2013-01-14 07:12:00,23.0,5.0,-100.00,SSE,153,2.0,3.0,46,-99.99,,,-99.99,,2013-01-14 15:12:00,
2013-01-14 07:23:00,23.0,5.0,-100.00,ESE,114,2.0,3.0,45,-99.99,,,-99.99,,2013-01-14 15:23:00,
2013-01-14 07:33:00,24.0,5.0,-100.00,North,360,1.0,2.0,43,-99.99,,,-99.99,,2013-01-14 15:33:00,
2013-01-14 07:42:00,24.0,6.0,-100.00,West,272,0.0,1.0,45,-99.99,,,-99.99,,2013-01-14 15:42:00,
2013-01-14 07:53:00,24.0,6.0,-100.00,NNW,329,1.0,4.0,45,-99.99,,,-99.99,,2013-01-14 15:53:00,
2013-01-14 08:02:00,24.0,6.0,-100.00,NNW,332,3.0,6.0,45,-99.99,,,-99.99,,2013-01-14 16:02:00,
2013-01-14 08:12:00,24.0,7.0,-100.00,NW,311,3.0,5.0,48,-99.99,,,-99.99,,2013-01-14 16:12:00,
2013-01-14 08:23:00,23.0,7.0,-100.00,NW,305,2.0,3.0,49,-99.99,,,-99.99,,2013-01-14 16:23:00,
2013-01-14 08:33:00,24.0,7.0,-100.00,WNW,302,2.0,3.0,48,-99.99,,,-99.99,,2013-01-14 16:33:00,
2013-01-14 08:42:00,25.0,7.0,-100.00,NW,320,2.0,3.0,46,-99.99,,,-99.99,,2013-01-14 16:42:00,
2013-01-14 08:52:00,26.0,8.0,-100.00,NW,323,2.0,3.0,45,-99.99,,,-99.99,,2013-01-14 16:52:00,
2013-01-14 09:02:00,26.0,8.0,-100.00,NW,323,2.0,3.0,45,-99.99,,,-99.99,,2013-01-14 17:02:00,
2013-01-14 09:12:00,30.0,8.0,-100.00,NNE,24,6.0,10.0,39,-99.99,,,-99.99,,2013-01-14 17:12:00,
2013-01-14 09:22:00,30.0,8.0,-100.00,NNE,27,6.0,10.0,38,-99.99,,,-99.99,,2013-01-14 17:22:00,
2013-01-14 09:33:00,31.0,7.0,-100.00,NNE,32,5.0,9.0,35,-99.99,,,-99.99,,2013-01-14 17:33:00,
2013-01-14 09:42:00,32.0,7.0,-100.00,NNE,33,6.0,12.0,34,-99.99,,,-99.99,,2013-01-14 17:42:00,
2013-01-14 09:53:00,33.0,6.0,-100.00,NNE,23,5.0,9.0,32,-99.99,,,-99.99,,2013-01-14 17:53:00,
2013-01-14 10:02:00,34.0,5.0,-100.00,NNE,13,6.0,9.0,29,-99.99,,,-99.99,,2013-01-14 18:02:00,
2013-01-14 10:12:00,35.0,3.0,-100.00,NNE,12,6.0,11.0,25,-99.99,,,-99.99,,2013-01-14 18:12:00,
2013-01-14 10:22:00,34.0,-1.0,-100.00,NNE,12,8.0,12.0,22,-99.99,,,-99.99,,2013-01-14 18:22:00,
2013-01-14 10:33:00,35.0,-1.0,-100.00,North,2,6.0,12.0,21,-99.99,,,-99.99,,2013-01-14 18:33:00,
2013-01-14 10:42:00,35.0,-2.0,-100.00,NNE,29,5.0,11.0,20,-99.99,,,-99.99,,2013-01-14 18:42:00,
2013-01-14 10:52:00,35.0,-2.0,-100.00,North,7,6.0,11.0,20,-99.99,,,-99.99,,2013-01-14 18:52:00,
2013-01-14 11:02:00,35.0,-5.0,-100.00,NNE,31,7.0,10.0,17,-99.99,,,-99.99,,2013-01-14 19:02:00,
2013-01-14 11:12:00,35.0,-8.0,-100.00,NNE,20,7.0,12.0,15,-99.99,,,-99.99,,2013-01-14 19:12:00,
2013-01-14 11:22:00,35.0,-9.0,-100.00,North,8,6.0,13.0,14,-99.99,,,-99.99,,2013-01-14 19:22:00,
2013-01-14 11:32:00,36.0,-10.0,-100.00,North,10,6.0,12.0,13,-99.99,,,-99.99,,2013-01-14 19:32:00,
2013-01-14 11:42:00,36.0,-10.0,-100.00,NNE,13,6.0,12.0,13,-99.99,,,-99.99,,2013-01-14 19:42:00,
2013-01-14 11:52:00,36.0,-12.0,-100.00,NNE,13,7.0,15.0,12,-99.99,,,-99.99,,2013-01-14 19:52:00,
2013-01-14 12:03:00,36.0,-13.0,-100.00,NNE,25,7.0,14.0,11,-99.99,,,-99.99,,2013-01-14 20:03:00,
2013-01-14 12:12:00,36.0,-13.0,-100.00,NNE,19,8.0,16.0,11,-99.99,,,-99.99,,2013-01-14 20:12:00,
2013-01-14 12:22:00,37.0,-13.0,-100.00,NNE,20,10.0,16.0,11,-99.99,,,-99.99,,2013-01-14 20:22:00,
2013-01-14 12:33:00,37.0,-11.0,-100.00,North,359,9.0,19.0,12,-99.99,,,-99.99,,2013-01-14 20:33:00,
2013-01-14 12:42:00,38.0,-10.0,-100.00,North,0,7.0,13.0,12,-99.99,,,-99.99,,2013-01-14 20:42:00,
2013-01-14 12:52:00,38.0,-10.0,-100.00,North,11,9.0,17.0,12,-99.99,,,-99.99,,2013-01-14 20:52:00,
2013-01-14 13:02:00,38.0,-10.0,-100.00,NE,34,11.0,17.0,12,-99.99,,,-99.99,,2013-01-14 21:02:00,
2013-01-14 13:12:00,37.0,-11.0,-100.00,NNE,28,13.0,19.0,12,-99.99,,,-99.99,,2013-01-14 21:12:00,
2013-01-14 13:22:00,37.0,-11.0,-100.00,NNE,23,13.0,20.0,12,-99.99,,,-99.99,,2013-01-14 21:22:00,
2013-01-14 13:32:00,37.0,-11.0,-100.00,NNE,31,11.0,21.0,12,-99.99,,,-99.99,,2013-01-14 21:32:00,
2013-01-14 13:42:00,37.0,-11.0,-100.00,NNE,26,12.0,20.0,12,-99.99,,,-99.99,,2013-01-14 21:42:00,
2013-01-14 13:53:00,38.0,-8.0,-100.00,NNE,15,11.0,18.0,13,-99.99,,,-99.99,,2013-01-14 21:53:00,
2013-01-14 14:02:00,38.0,-10.0,-100.00,NNE,13,11.0,18.0,12,-99.99,,,-99.99,,2013-01-14 22:02:00,
2013-01-14 14:12:00,37.0,-9.0,-100.00,North,11,10.0,15.0,13,-99.99,,,-99.99,,2013-01-14 22:12:00,
2013-01-14 14:23:00,36.0,-10.0,-100.00,NNE,24,11.0,18.0,13,-99.99,,,-99.99,,2013-01-14 22:23:00,
2013-01-14 14:32:00,37.0,-9.0,-100.00,NNE,19,9.0,17.0,13,-99.99,,,-99.99,,2013-01-14 22:32:00,
2013-01-14 14:42:00,37.0,-8.0,-100.00,North,9,10.0,16.0,14,-99.99,,,-99.99,,2013-01-14 22:42:00,
2013-01-14 14:52:00,37.0,-9.0,-100.00,NNE,23,11.0,16.0,13,-99.99,,,-99.99,,2013-01-14 22:52:00,
2013-01-14 15:02:00,37.0,-9.0,-100.00,NNE,23,11.0,16.0,13,-99.99,,,-99.99,,2013-01-14 23:02:00,
2013-01-14 15:12:00,37.0,-9.0,-100.00,NNE,27,10.0,16.0,13,-99.99,,,-99.99,,2013-01-14 23:12:00,
2013-01-14 15:22:00,36.0,-10.0,-100.00,NNE,22,10.0,19.0,13,-99.99,,,-99.99,,2013-01-14 23:22:00,
2013-01-14 15:32:00,36.0,-10.0,-100.00,NNE,24,11.0,17.0,13,-99.99,,,-99.99,,2013-01-14 23:32:00,
2013-01-14 15:42:00,36.0,-10.0,-100.00,NNE,20,10.0,15.0,13,-99.99,,,-99.99,,2013-01-14 23:42:00,
2013-01-14 15:52:00,36.0,-10.0,-100.00,NNE,15,8.0,14.0,13,-99.99,,,-99.99,,2013-01-14 23:52:00,
2013-01-14 16:02:00,36.0,-10.0,-100.00,NNE,16,11.0,17.0,13,-99.99,,,-99.99,,2013-01-15 00:02:00,
2013-01-14 16:12:00,36.0,-10.0,-100.00,NNE,26,9.0,16.0,13,-99.99,,,-99.99,,2013-01-15 00:12:00,
2013-01-14 16:22:00,36.0,-9.0,-100.00,NNE,23,10.0,15.0,14,-99.99,,,-99.99,,2013-01-15 00:22:00,
2013-01-14 16:32:00,36.0,-9.0,-100.00,NNE,25,10.0,15.0,14,-99.99,,,-99.99,,2013-01-15 00:32:00,
2013-01-14 16:43:00,35.0,-9.0,-100.00,NNE,23,8.0,12.0,14,-99.99,,,-99.99,,2013-01-15 00:43:00,
2013-01-14 16:52:00,35.0,-9.0,-100.00,NNE,19,8.0,14.0,14,-99.99,,,-99.99,,2013-01-15 00:52:00,
2013-01-14 17:02:00,35.0,-9.0,-100.00,NNE,19,8.0,14.0,14,-99.99,,,-99.99,,2013-01-15 01:02:00,
2013-01-14 17:12:00,34.0,-9.0,-100.00,North,1,6.0,10.0,15,-99.99,,,-99.99,,2013-01-15 01:12:00,
2013-01-14 17:22:00,33.0,-10.0,-100.00,North,359,5.0,9.0,15,-99.99,,,-99.99,,2013-01-15 01:22:00,
2013-01-14 17:32:00,33.0,-10.0,-100.00,North,359,5.0,9.0,15,-99.99,,,-99.99,,2013-01-15 01:32:00,
2013-01-14 17:42:00,33.0,-10.0,-100.00,North,359,5.0,9.0,15,-99.99,,,-99.99,,2013-01-15 01:42:00,
2013-01-14 17:52:00,30.0,-7.0,-100.00,North,10,4.0,7.0,19,-99.99,,,-99.99,,2013-01-15 01:52:00,
2013-01-14 18:02:00,30.0,-6.0,-100.00,NNE,31,5.0,11.0,20,-99.99,,,-99.99,,2013-01-15 02:02:00,
2013-01-14 18:12:00,29.0,-6.0,-100.00,NE,39,5.0,9.0,21,-99.99,,,-99.99,,2013-01-15 02:12:00,
2013-01-14 18:22:00,29.0,-5.0,-100.00,NNE,18,3.0,6.0,22,-99.99,,,-99.99,,2013-01-15 02:22:00,
2013-01-14 18:32:00,29.0,-6.0,-100.00,North,3,3.0,4.0,21,-99.99,,,-99.99,,2013-01-15 02:32:00,
2013-01-14 18:42:00,30.0,-7.0,-100.00,NNW,335,3.0,7.0,19,-99.99,,,-99.99,,2013-01-15 02:42:00,
2013-01-14 18:52:00,30.0,-7.0,-100.00,NNE,27,2.0,4.0,19,-99.99,,,-99.99,,2013-01-15 02:52:00,
2013-01-14 19:02:00,30.0,-7.0,-100.00,NNE,27,2.0,4.0,19,-99.99,,,-99.99,,2013-01-15 03:02:00,
2013-01-14 19:12:00,29.0,-8.0,-100.00,ENE,58,5.0,10.0,19,-99.99,,,-99.99,,2013-01-15 03:12:00,
2013-01-14 19:22:00,28.0,-8.0,-100.00,East,88,5.0,9.0,20,-99.99,,,-99.99,,2013-01-15 03:22:00,
2013-01-14 19:32:00,29.0,-9.0,-100.00,ENE,60,6.0,13.0,18,-99.99,,,-99.99,,2013-01-15 03:32:00,
2013-01-14 19:42:00,29.0,-9.0,-100.00,NE,37,7.0,14.0,18,-99.99,,,-99.99,,2013-01-15 03:42:00,
2013-01-14 19:52:00,29.0,-9.0,-100.00,NE,46,10.0,16.0,18,-99.99,,,-99.99,,2013-01-15 03:52:00,
2013-01-14 20:02:00,29.0,-9.0,-100.00,NE,46,10.0,16.0,18,-99.99,,,-99.99,,2013-01-15 04:02:00,
2013-01-14 20:12:00,30.0,-8.0,-100.00,NE,45,11.0,22.0,18,-99.99,,,-99.99,,2013-01-15 04:12:00,
2013-01-14 20:22:00,30.0,-8.0,-100.00,NNE,26,10.0,20.0,18,-99.99,,,-99.99,,2013-01-15 04:22:00,
2013-01-14 20:32:00,31.0,-7.0,-100.00,NE,34,13.0,20.0,18,-99.99,,,-99.99,,2013-01-15 04:32:00,
2013-01-14 20:42:00,31.0,-7.0,-100.00,NE,34,13.0,20.0,18,-99.99,,,-99.99,,2013-01-15 04:42:00,
2013-01-14 20:52:00,31.0,-7.0,-100.00,NNE,28,13.0,22.0,18,-99.99,,,-99.99,,2013-01-15 04:52:00,
2013-01-14 21:03:00,30.0,-8.0,-100.00,NNE,26,11.0,26.0,18,-99.99,,,-99.99,,2013-01-15 05:03:00,
2013-01-14 21:12:00,30.0,-6.0,-100.00,NNE,30,9.0,17.0,20,-99.99,,,-99.99,,2013-01-15 05:12:00,
2013-01-14 21:22:00,30.0,-6.0,-100.00,NNE,32,8.0,13.0,20,-99.99,,,-99.99,,2013-01-15 05:22:00,
2013-01-14 21:33:00,30.0,-7.0,-100.00,NNE,26,10.0,15.0,19,-99.99,,,-99.99,,2013-01-15 05:33:00,
2013-01-14 21:42:00,30.0,-7.0,-100.00,NE,37,8.0,15.0,19,-99.99,,,-99.99,,2013-01-15 05:42:00,
2013-01-14 21:52:00,31.0,-6.0,-100.00,NE,50,10.0,17.0,19,-99.99,,,-99.99,,2013-01-15 05:52:00,
2013-01-14 22:02:00,31.0,-7.0,-100.00,NE,42,10.0,21.0,18,-99.99,,,-99.99,,2013-01-15 06:02:00,
2013-01-14 22:12:00,31.0,-7.0,-100.00,NE,40,11.0,21.0,18,-99.99,,,-99.99,,2013-01-15 06:12:00,
2013-01-14 22:22:00,31.0,-7.0,-100.00,NNE,24,11.0,18.0,18,-99.99,,,-99.99,,2013-01-15 06:22:00,
2013-01-14 22:32:00,31.0,-7.0,-100.00,NNE,29,10.0,16.0,18,-99.99,,,-99.99,,2013-01-15 06:32:00,
2013-01-14 22:42:00,30.0,-7.0,-100.00,NE,38,9.0,14.0,19,-99.99,,,-99.99,,2013-01-15 06:42:00,
2013-01-14 22:52:00,30.0,-8.0,-100.00,NE,45,9.0,13.0,18,-99.99,,,-99.99,,2013-01-15 06:52:00,
2013-01-14 23:02:00,30.0,-7.0,-100.00,NE,40,7.0,14.0,19,-99.99,,,-99.99,,2013-01-15 07:02:00,
2013-01-14 23:12:00,30.0,-8.0,-100.00,NNE,33,10.0,17.0,18,-99.99,,,-99.99,,2013-01-15 07:12:00,
2013-01-14 23:22:00,30.0,-7.0,-100.00,NNE,31,7.0,15.0,19,-99.99,,,-99.99,,2013-01-15 07:22:00,
2013-01-14 23:32:00,30.0,-7.0,-100.00,NNE,20,7.0,11.0,19,-99.99,,,-99.99,,2013-01-15 07:32:00,
2013-01-14 23:42:00,29.0,-7.0,-100.00,NNE,20,6.0,16.0,20,-99.99,,,-99.99,,2013-01-15 07:42:00,
2013-01-14 23:52:00,29.0,-6.0,-100.00,NNE,29,4.0,8.0,21,-99.99,,,-99.99,,2013-01-15 07:52:00,